Time;durP1;ratioP1;P1;durP2;ratioP2;P2;SDS_P1;SDS_P2;PMS_P1;PMS_P2;Temp;Humidity;BMP_temperature;BMP_pressure;BME280_temperature;BME280_humidity;BME280_pressure;Samples;Min_cycle;Max_cycle;Signal;HPM_P1;HPM_P2
2023/10/03 00:01:37;;;;;;;26.38;9.15;;;;;;;;;;5027471;28;20108;-66
2023/10/03 00:04:03;;;;;;;27.05;9.15;;;;;;;;;;5022242;28;20075;-69
2023/10/03 00:06:28;;;;;;;29.85;10.48;;;;;;;;;;5003057;28;20579;-65
2023/10/03 00:08:54;;;;;;;23.08;9.05;;;;;;;;;;5025296;28;20028;-65
2023/10/03 00:11:20;;;;;;;25.38;9.10;;;;;;;;;;5024417;28;20469;-66
2023/10/03 00:13:45;;;;;;;37.50;10.05;;;;;;;;;;5026264;28;20013;-68
2023/10/03 00:16:11;;;;;;;25.88;8.93;;;;;;;;;;5021484;28;20049;-65
2023/10/03 00:18:36;;;;;;;28.77;9.10;;;;;;;;;;5031290;28;20040;-68
2023/10/03 00:21:01;;;;;;;29.80;9.90;;;;;;;;;;5028785;28;20054;-67
2023/10/03 00:23:27;;;;;;;28.20;9.18;;;;;;;;;;5028756;28;20044;-66
2023/10/03 00:25:56;;;;;;;38.75;9.82;;;;;;;;;;5027698;28;20052;-67
2023/10/03 00:28:21;;;;;;;26.08;9.50;;;;;;;;;;5029430;28;20020;-65
2023/10/03 00:30:48;;;;;;;23.98;8.88;;;;;;;;;;5027369;28;20029;-67
2023/10/03 00:33:13;;;;;;;28.30;9.43;;;;;;;;;;5029183;28;20485;-68
2023/10/03 00:35:40;;;;;;;26.67;9.55;;;;;;;;;;5028876;28;20052;-65
2023/10/03 00:38:09;;;;;;;29.38;10.63;;;;;;;;;;5034208;28;21173;-68
2023/10/03 00:40:35;;;;;;;26.42;9.38;;;;;;;;;;5029116;28;20040;-66
2023/10/03 00:43:01;;;;;;;36.47;10.02;;;;;;;;;;5027762;28;20048;-68
2023/10/03 00:45:30;;;;;;;30.02;9.68;;;;;;;;;;5028780;28;20025;-68
2023/10/03 00:47:55;;;;;;;;;;;;;;;;;;5031104;28;20022;-67
2023/10/03 00:50:23;;;;;;;28.40;9.10;;;;;;;;;;5028700;28;19909;-70
2023/10/03 00:52:53;;;;;;;31.13;10.35;;;;;;;;;;5028517;28;20345;-69
2023/10/03 00:55:19;;;;;;;31.13;9.95;;;;;;;;;;5015438;28;20056;-69
2023/10/03 00:57:44;;;;;;;32.22;11.32;;;;;;;;;;5006351;28;20066;-69
2023/10/03 01:00:16;;;;;;;28.75;10.35;;;;;;;;;;5020168;28;20044;-67
2023/10/03 01:02:49;;;;;;;29.08;9.00;;;;;;;;;;5022992;28;20026;-65
2023/10/03 01:05:16;;;;;;;27.98;10.18;;;;;;;;;;5024628;28;20025;-68
2023/10/03 01:07:41;;;;;;;30.60;10.18;;;;;;;;;;5028464;28;20040;-67
2023/10/03 01:10:08;;;;;;;27.33;10.57;;;;;;;;;;5028683;28;20738;-69
2023/10/03 01:12:35;;;;;;;25.73;9.07;;;;;;;;;;5028445;28;20116;-68
2023/10/03 01:15:03;;;;;;;27.85;9.70;;;;;;;;;;5028647;28;20021;-66
2023/10/03 01:17:31;;;;;;;31.38;10.80;;;;;;;;;;5023525;28;20749;-67
2023/10/03 01:19:56;;;;;;;25.63;9.50;;;;;;;;;;5025338;28;20037;-66
2023/10/03 01:22:26;;;;;;;27.10;9.45;;;;;;;;;;5032022;28;20021;-65
2023/10/03 01:24:51;;;;;;;35.88;10.75;;;;;;;;;;5030804;28;20034;-66
2023/10/03 01:27:16;;;;;;;30.40;10.40;;;;;;;;;;5001274;28;20055;-67
2023/10/03 01:29:42;;;;;;;28.02;10.15;;;;;;;;;;5023365;28;20014;-67
2023/10/03 01:32:07;;;;;;;35.20;10.25;;;;;;;;;;5028450;28;20504;-69
2023/10/03 01:34:32;;;;;;;27.50;9.50;;;;;;;;;;5021664;28;20495;-66
2023/10/03 01:36:58;;;;;;;35.13;11.40;;;;;;;;;;5009139;28;20307;-68
2023/10/03 01:39:24;;;;;;;31.83;9.93;;;;;;;;;;5028982;28;20025;-68
2023/10/03 01:41:49;;;;;;;32.58;11.10;;;;;;;;;;5023038;28;20544;-68
2023/10/03 01:44:16;;;;;;;38.95;10.25;;;;;;;;;;5029314;28;20025;-68
2023/10/03 01:46:41;;;;;;;28.23;10.20;;;;;;;;;;5023353;28;20025;-66
2023/10/03 01:49:07;;;;;;;33.85;11.00;;;;;;;;;;5011502;28;20021;-68
2023/10/03 01:51:32;;;;;;;27.63;10.15;;;;;;;;;;5022605;28;20116;-68
2023/10/03 01:53:57;;;;;;;37.28;11.50;;;;;;;;;;5027530;28;20026;-67
2023/10/03 01:56:24;;;;;;;29.60;9.48;;;;;;;;;;5022398;28;20033;-67
2023/10/03 01:58:50;;;;;;;34.80;10.70;;;;;;;;;;5028437;28;20033;-68
2023/10/03 02:01:15;;;;;;;30.90;10.55;;;;;;;;;;5028197;28;20076;-68
2023/10/03 02:03:40;;;;;;;29.85;10.57;;;;;;;;;;5028072;28;20182;-64
2023/10/03 02:06:07;;;;;;;29.65;9.18;;;;;;;;;;5023479;28;20025;-68
2023/10/03 02:08:33;;;;;;;34.42;10.80;;;;;;;;;;5027434;28;20121;-69
2023/10/03 02:10:59;;;;;;;35.15;11.05;;;;;;;;;;5026887;28;20013;-69
2023/10/03 02:13:24;;;;;;;41.58;10.77;;;;;;;;;;5027163;28;20017;-67
2023/10/03 02:15:51;;;;;;;26.80;9.80;;;;;;;;;;5026354;28;20331;-66
2023/10/03 02:18:18;;;;;;;28.35;9.80;;;;;;;;;;5018119;28;20032;-67
2023/10/03 02:20:47;;;;;;;30.65;10.65;;;;;;;;;;5022430;28;20096;-67
2023/10/03 02:23:17;;;;;;;27.42;10.20;;;;;;;;;;5023778;28;20092;-66
2023/10/03 02:25:44;;;;;;;35.20;11.18;;;;;;;;;;5020748;28;20025;-67
2023/10/03 02:28:09;;;;;;;30.65;11.32;;;;;;;;;;5022819;28;20364;-68
2023/10/03 02:30:35;;;;;;;32.05;10.30;;;;;;;;;;5023104;28;20433;-64
2023/10/03 02:33:12;;;;;;;29.17;10.05;;;;;;;;;;5025940;28;20105;-68
2023/10/03 02:35:38;;;;;;;33.00;9.98;;;;;;;;;;5026668;28;20018;-68
2023/10/03 02:38:04;;;;;;;32.95;10.20;;;;;;;;;;5026900;28;20028;-66
2023/10/03 02:40:32;;;;;;;28.33;10.63;;;;;;;;;;5027491;28;20021;-68
2023/10/03 02:42:59;;;;;;;31.10;9.40;;;;;;;;;;5026837;28;20045;-68
2023/10/03 02:45:25;;;;;;;30.48;10.55;;;;;;;;;;5027777;28;20419;-67
2023/10/03 02:47:51;;;;;;;30.45;9.75;;;;;;;;;;5030513;28;20017;-66
2023/10/03 02:50:17;;;;;;;34.70;11.18;;;;;;;;;;5025792;28;20015;-65
2023/10/03 02:52:45;;;;;;;32.55;10.55;;;;;;;;;;5023880;28;20039;-67
2023/10/03 02:55:13;;;;;;;31.83;10.52;;;;;;;;;;5027127;28;20048;-68
2023/10/03 02:57:39;;;;;;;32.85;9.85;;;;;;;;;;5007401;28;20033;-67
2023/10/03 03:00:15;;;;;;;33.20;10.77;;;;;;;;;;5027361;28;20060;-66
2023/10/03 03:02:46;;;;;;;34.33;9.93;;;;;;;;;;5023194;28;20025;-68
2023/10/03 03:05:15;;;;;;;35.53;11.27;;;;;;;;;;5018192;28;20021;-66
2023/10/03 03:07:41;;;;;;;32.65;10.27;;;;;;;;;;5026634;28;20090;-67
2023/10/03 03:10:07;;;;;;;30.58;11.20;;;;;;;;;;5018945;28;20029;-65
2023/10/03 03:12:35;;;;;;;32.80;9.68;;;;;;;;;;5026580;28;20024;-67
2023/10/03 03:15:00;;;;;;;35.78;10.52;;;;;;;;;;5026183;28;20093;-67
2023/10/03 03:17:25;;;;;;;33.60;10.93;;;;;;;;;;5027543;28;20159;-67
2023/10/03 03:19:53;;;;;;;29.40;10.27;;;;;;;;;;5026642;28;20342;-66
2023/10/03 03:22:21;;;;;;;34.03;11.00;;;;;;;;;;5023762;28;20028;-66
2023/10/03 03:24:51;;;;;;;32.20;10.68;;;;;;;;;;5018792;28;20266;-65
2023/10/03 03:27:17;;;;;;;31.30;10.38;;;;;;;;;;5020429;28;20104;-66
2023/10/03 03:30:09;;;;;;;33.42;10.60;;;;;;;;;;5025182;28;20037;-68
2023/10/03 03:32:27;;;;;;;38.90;11.48;;;;;;;;;;5020449;28;20021;-68
2023/10/03 03:34:52;;;;;;;34.80;10.32;;;;;;;;;;5023074;28;20418;-65
2023/10/03 03:37:21;;;;;;;33.45;10.57;;;;;;;;;;5032436;28;20108;-68
2023/10/03 03:39:53;;;;;;;34.50;10.20;;;;;;;;;;5027265;28;20045;-67
2023/10/03 03:42:19;;;;;;;32.58;10.38;;;;;;;;;;5020194;28;20400;-67
2023/10/03 03:44:45;;;;;;;35.92;11.38;;;;;;;;;;5030228;28;20156;-66
2023/10/03 03:47:11;;;;;;;30.52;10.57;;;;;;;;;;5027601;28;20105;-65
2023/10/03 03:49:37;;;;;;;30.45;10.93;;;;;;;;;;5030918;28;20028;-68
2023/10/03 03:52:02;;;;;;;35.38;10.63;;;;;;;;;;5030834;28;20017;-68
2023/10/03 03:54:27;;;;;;;29.60;11.32;;;;;;;;;;5030833;28;20036;-68
2023/10/03 03:56:52;;;;;;;35.00;11.20;;;;;;;;;;5030545;28;20083;-68
2023/10/03 03:59:18;;;;;;;33.42;11.88;;;;;;;;;;5030922;28;20029;-67
2023/10/03 04:01:43;;;;;;;30.75;10.98;;;;;;;;;;5031130;28;20018;-66
2023/10/03 04:04:12;;;;;;;36.08;11.75;;;;;;;;;;5023995;28;20017;-67
2023/10/03 04:06:37;;;;;;;33.80;11.55;;;;;;;;;;5026965;28;20489;-67
2023/10/03 04:09:04;;;;;;;31.13;10.85;;;;;;;;;;5031471;28;20036;-66
2023/10/03 04:11:30;;;;;;;33.95;11.38;;;;;;;;;;5027818;28;20481;-69
2023/10/03 04:13:55;;;;;;;33.92;10.45;;;;;;;;;;5028485;28;20024;-68
2023/10/03 04:16:21;;;;;;;28.63;10.30;;;;;;;;;;5028191;28;20105;-63
2023/10/03 04:18:50;;;;;;;30.00;10.32;;;;;;;;;;5027104;28;20505;-67
2023/10/03 04:21:16;;;;;;;35.78;12.38;;;;;;;;;;5026105;28;20021;-66
2023/10/03 04:23:42;;;;;;;33.38;12.40;;;;;;;;;;5036502;28;20032;-66
2023/10/03 04:26:08;;;;;;;35.95;11.65;;;;;;;;;;5029658;28;20159;-69
2023/10/03 04:28:33;;;;;;;38.97;12.10;;;;;;;;;;5027027;28;20100;-68
2023/10/03 04:30:58;;;;;;;33.65;10.70;;;;;;;;;;5026363;28;20089;-66
2023/10/03 04:33:24;;;;;;;35.28;11.48;;;;;;;;;;5031293;28;20032;-65
2023/10/03 04:35:50;;;;;;;36.20;12.23;;;;;;;;;;5023743;28;20025;-68
2023/10/03 04:38:16;;;;;;;37.53;11.85;;;;;;;;;;5036121;28;20022;-67
2023/10/03 04:40:42;;;;;;;34.67;11.52;;;;;;;;;;5029672;28;20022;-67
2023/10/03 04:43:10;;;;;;;33.40;11.90;;;;;;;;;;5023854;28;20046;-66
2023/10/03 04:45:36;;;;;;;34.10;10.80;;;;;;;;;;5030025;28;20025;-66
2023/10/03 04:48:02;;;;;;;38.65;12.05;;;;;;;;;;5032766;28;20036;-65
2023/10/03 04:50:27;;;;;;;42.72;12.43;;;;;;;;;;5029191;28;20441;-67
2023/10/03 04:52:53;;;;;;;34.13;11.40;;;;;;;;;;5029593;28;20127;-68
2023/10/03 04:55:19;;;;;;;39.47;11.85;;;;;;;;;;5024233;28;20018;-68
2023/10/03 04:57:46;;;;;;;36.67;11.73;;;;;;;;;;5038733;23;20471;-64
2023/10/03 05:00:17;;;;;;;33.47;11.63;;;;;;;;;;5029909;28;20075;-65
2023/10/03 05:02:46;;;;;;;46.97;12.18;;;;;;;;;;5030474;28;20045;-67
2023/10/03 05:05:11;;;;;;;37.80;12.40;;;;;;;;;;5024977;28;20022;-67
2023/10/03 05:07:37;;;;;;;36.80;12.07;;;;;;;;;;5031313;28;20109;-67
2023/10/03 05:10:03;;;;;;;40.90;12.70;;;;;;;;;;5031327;28;20041;-68
2023/10/03 05:12:28;;;;;;;40.90;12.90;;;;;;;;;;5031520;28;20018;-67
2023/10/03 05:14:54;;;;;;;38.70;12.40;;;;;;;;;;5028902;28;20031;-68
2023/10/03 05:17:19;;;;;;;38.38;12.52;;;;;;;;;;5018812;28;20029;-70
2023/10/03 05:19:44;;;;;;;38.55;11.43;;;;;;;;;;5020247;28;20030;-72
2023/10/03 05:22:10;;;;;;;37.30;12.52;;;;;;;;;;5018846;28;20029;-68
2023/10/03 05:24:36;;;;;;;35.00;11.63;;;;;;;;;;5019096;28;20227;-67
2023/10/03 05:27:03;;;;;;;40.55;13.25;;;;;;;;;;5019063;28;20029;-67
2023/10/03 05:29:29;;;;;;;34.83;12.15;;;;;;;;;;5019045;28;20022;-68
2023/10/03 05:31:54;;;;;;;37.78;13.05;;;;;;;;;;5016072;28;20119;-68
2023/10/03 05:34:22;;;;;;;40.13;12.50;;;;;;;;;;5018107;28;20440;-71
2023/10/03 05:36:48;;;;;;;38.25;12.30;;;;;;;;;;5018816;28;20116;-71
2023/10/03 05:39:15;;;;;;;42.28;13.93;;;;;;;;;;5019401;28;20029;-69
2023/10/03 05:41:41;;;;;;;43.38;14.23;;;;;;;;;;5018841;28;20033;-71
2023/10/03 05:44:11;;;;;;;36.40;13.20;;;;;;;;;;5017153;28;20037;-67
2023/10/03 05:46:37;;;;;;;33.33;13.00;;;;;;;;;;5019925;28;20033;-66
2023/10/03 05:49:02;;;;;;;35.60;12.65;;;;;;;;;;5017495;28;20028;-68
2023/10/03 05:51:27;;;;;;;43.25;13.25;;;;;;;;;;5018828;28;20017;-70
2023/10/03 05:53:54;;;;;;;41.10;13.33;;;;;;;;;;5017154;28;20044;-68
2023/10/03 05:56:19;;;;;;;40.70;13.52;;;;;;;;;;5017917;28;20254;-71
2023/10/03 05:58:44;;;;;;;37.33;11.82;;;;;;;;;;5017412;28;20049;-70
2023/10/03 06:01:12;;;;;;;38.60;12.35;;;;;;;;;;5018005;28;20029;-69
2023/10/03 06:03:37;;;;;;;40.00;13.17;;;;;;;;;;5016492;28;20033;-72
2023/10/03 06:06:02;;;;;;;39.25;13.57;;;;;;;;;;5017986;28;20017;-68
2023/10/03 06:08:28;;;;;;;35.65;13.10;;;;;;;;;;5018258;28;20029;-67
2023/10/03 06:10:56;;;;;;;40.92;13.43;;;;;;;;;;5001043;28;20037;-68
2023/10/03 06:13:21;;;;;;;38.55;14.07;;;;;;;;;;5016884;28;20108;-72
2023/10/03 06:15:46;;;;;;;36.80;13.60;;;;;;;;;;5017711;28;20024;-67
2023/10/03 06:18:12;;;;;;;48.38;15.15;;;;;;;;;;5017915;28;20029;-69
2023/10/03 06:20:38;;;;;;;40.85;13.88;;;;;;;;;;5017109;28;20038;-67
2023/10/03 06:23:04;;;;;;;46.10;13.52;;;;;;;;;;5015726;28;20032;-67
2023/10/03 06:25:29;;;;;;;39.45;13.30;;;;;;;;;;5017204;28;20028;-70
2023/10/03 06:27:55;;;;;;;42.45;13.27;;;;;;;;;;5016461;28;20049;-69
2023/10/03 06:30:20;;;;;;;44.42;14.07;;;;;;;;;;5017150;28;20017;-71
2023/10/03 06:32:45;;;;;;;46.72;14.82;;;;;;;;;;5015180;28;20072;-67
2023/10/03 06:35:11;;;;;;;41.30;13.40;;;;;;;;;;4998208;28;20097;-71
2023/10/03 06:37:37;;;;;;;44.67;14.43;;;;;;;;;;5017261;28;20392;-68
2023/10/03 06:40:07;;;;;;;41.72;12.85;;;;;;;;;;5018200;28;20029;-69
2023/10/03 06:42:35;;;;;;;45.15;14.57;;;;;;;;;;5016022;28;20036;-67
2023/10/03 06:45:00;;;;;;;;;;;;;;;;;;5017633;28;20100;-70
2023/10/03 06:47:26;;;;;;;45.03;13.50;;;;;;;;;;5016583;28;19917;-67
2023/10/03 06:49:51;;;;;;;41.63;12.48;;;;;;;;;;4999186;28;20028;-70
2023/10/03 06:52:16;;;;;;;39.67;13.23;;;;;;;;;;5016811;28;20040;-67
2023/10/03 06:54:42;;;;;;;36.92;12.50;;;;;;;;;;5016630;28;20064;-70
2023/10/03 06:57:07;;;;;;;41.88;13.48;;;;;;;;;;5015877;28;20029;-69
2023/10/03 06:59:33;;;;;;;43.07;13.43;;;;;;;;;;5015368;28;20029;-68
2023/10/03 07:01:58;;;;;;;40.15;13.77;;;;;;;;;;5015025;28;20408;-68
2023/10/03 07:04:24;;;;;;;40.65;13.80;;;;;;;;;;5016308;28;20040;-69
2023/10/03 07:06:50;;;;;;;40.00;12.95;;;;;;;;;;5016411;28;20484;-69
2023/10/03 07:09:17;;;;;;;34.30;12.82;;;;;;;;;;5016111;28;20231;-68
2023/10/03 07:11:42;;;;;;;37.60;13.10;;;;;;;;;;5015421;28;20067;-67
2023/10/03 07:14:11;;;;;;;38.97;13.60;;;;;;;;;;5015965;28;20037;-69
2023/10/03 07:16:37;;;;;;;39.08;13.77;;;;;;;;;;5015762;28;20116;-67
2023/10/03 07:19:02;;;;;;;38.45;13.27;;;;;;;;;;5015343;28;20033;-69
2023/10/03 07:21:27;;;;;;;38.67;14.10;;;;;;;;;;5016554;28;20048;-69
2023/10/03 07:23:53;;;;;;;42.43;13.50;;;;;;;;;;5015082;28;20027;-69
2023/10/03 07:26:18;;;;;;;36.33;12.48;;;;;;;;;;5017418;28;20266;-69
2023/10/03 07:28:43;;;;;;;45.42;14.05;;;;;;;;;;5016521;28;20030;-73
2023/10/03 07:31:09;;;;;;;43.28;13.10;;;;;;;;;;5015195;28;20052;-75
2023/10/03 07:33:35;;;;;;;45.08;14.05;;;;;;;;;;5014708;28;20033;-69
2023/10/03 07:36:03;;;;;;;41.13;13.63;;;;;;;;;;5014418;28;20807;-70
2023/10/03 07:38:28;;;;;;;;;;;;;;;;;;5017555;28;20025;-70
2023/10/03 07:40:54;;;;;;;41.30;13.93;;;;;;;;;;5017148;28;19939;-72
2023/10/03 07:43:19;;;;;;;42.17;13.00;;;;;;;;;;5015232;28;20079;-73
2023/10/03 07:45:44;;;;;;;40.93;13.83;;;;;;;;;;5015856;28;20041;-72
2023/10/03 07:48:10;;;;;;;40.30;13.43;;;;;;;;;;5016741;28;20298;-72
2023/10/03 07:50:38;;;;;;;36.72;13.05;;;;;;;;;;5015579;28;20029;-68
2023/10/03 07:53:04;;;;;;;40.42;14.07;;;;;;;;;;5012271;28;20025;-72
2023/10/03 07:55:32;;;;;;;36.55;12.30;;;;;;;;;;5016417;28;20033;-70
2023/10/03 07:57:57;;;;;;;41.97;12.70;;;;;;;;;;5014698;28;20912;-71
2023/10/03 08:00:26;;;;;;;37.33;13.32;;;;;;;;;;5014614;28;20521;-68
2023/10/03 08:02:51;;;;;;;39.20;12.35;;;;;;;;;;5013810;28;20049;-73
2023/10/03 08:05:17;;;;;;;32.40;12.43;;;;;;;;;;5015694;28;20133;-73
2023/10/03 08:07:47;;;;;;;39.28;13.20;;;;;;;;;;5016019;28;20084;-70
2023/10/03 08:10:14;;;;;;;37.97;13.05;;;;;;;;;;5016589;28;20037;-66
2023/10/03 08:12:40;;;;;;;42.47;13.88;;;;;;;;;;5012341;28;20148;-70
2023/10/03 08:15:16;;;;;;;37.30;13.30;;;;;;;;;;5015688;28;20108;-71
2023/10/03 08:17:42;;;;;;;42.13;12.40;;;;;;;;;;5015521;28;20453;-69
2023/10/03 08:20:09;;;;;;;37.72;13.25;;;;;;;;;;5015083;28;20568;-70
2023/10/03 08:22:41;;;;;;;35.85;12.68;;;;;;;;;;5015111;28;20036;-69
2023/10/03 08:25:07;;;;;;;40.08;12.45;;;;;;;;;;5015793;28;20034;-68
2023/10/03 08:27:32;;;;;;;33.85;12.02;;;;;;;;;;5014235;28;20132;-71
2023/10/03 08:30:00;;;;;;;42.25;13.40;;;;;;;;;;5014055;28;20021;-69
2023/10/03 08:32:25;;;;;;;39.85;12.05;;;;;;;;;;5017083;28;20029;-69
2023/10/03 08:34:51;;;;;;;44.05;11.55;;;;;;;;;;5026166;28;20037;-68
2023/10/03 08:37:23;;;;;;;38.20;12.07;;;;;;;;;;5030719;28;20501;-68
2023/10/03 08:39:49;;;;;;;37.72;11.10;;;;;;;;;;5026763;28;20043;-68
2023/10/03 08:42:18;;;;;;;43.95;11.40;;;;;;;;;;5030502;28;20022;-68
2023/10/03 08:44:43;;;;;;;42.88;10.20;;;;;;;;;;5029663;28;20027;-68
2023/10/03 08:47:11;;;;;;;47.25;10.95;;;;;;;;;;5034295;28;20100;-69
2023/10/03 08:49:38;;;;;;;33.83;10.85;;;;;;;;;;5031133;28;20091;-68
2023/10/03 08:52:09;;;;;;;28.33;11.48;;;;;;;;;;5025758;28;20025;-68
2023/10/03 08:54:37;;;;;;;33.83;11.73;;;;;;;;;;5027717;28;20049;-68
2023/10/03 08:57:04;;;;;;;29.48;10.73;;;;;;;;;;5004293;28;20405;-68
2023/10/03 08:59:30;;;;;;;34.38;10.35;;;;;;;;;;5030863;28;20116;-67
2023/10/03 09:01:58;;;;;;;29.10;10.00;;;;;;;;;;5024034;28;20087;-66
2023/10/03 09:04:23;;;;;;;27.77;9.97;;;;;;;;;;5030653;28;20025;-68
2023/10/03 09:06:50;;;;;;;29.90;10.35;;;;;;;;;;5020078;28;20096;-68
2023/10/03 09:09:16;;;;;;;34.30;10.32;;;;;;;;;;5017174;28;20198;-69
2023/10/03 09:11:43;;;;;;;31.25;9.73;;;;;;;;;;5030127;28;20633;-65
2023/10/03 09:14:12;;;;;;;34.42;10.52;;;;;;;;;;5030496;28;20374;-67
2023/10/03 09:16:40;;;;;;;31.52;10.13;;;;;;;;;;5012763;28;20022;-69
2023/10/03 09:19:09;;;;;;;28.27;10.00;;;;;;;;;;5022885;28;20524;-69
2023/10/03 09:21:34;;;;;;;25.95;10.15;;;;;;;;;;5023881;28;20132;-69
2023/10/03 09:24:12;;;;;;;28.27;10.25;;;;;;;;;;5028734;28;20076;-68
2023/10/03 09:26:47;;;;;;;28.50;9.27;;;;;;;;;;5026312;28;20064;-68
2023/10/03 09:29:18;;;;;;;30.20;10.45;;;;;;;;;;5030407;28;20013;-68
2023/10/03 09:31:45;;;;;;;31.88;10.20;;;;;;;;;;5026384;28;20393;-67
2023/10/03 09:34:13;;;;;;;32.72;10.25;;;;;;;;;;5027655;28;20397;-69
2023/10/03 09:36:39;;;;;;;28.45;9.00;;;;;;;;;;5035054;28;20027;-67
2023/10/03 09:39:06;;;;;;;31.20;10.80;;;;;;;;;;5024685;28;20108;-68
2023/10/03 09:41:37;;;;;;;22.47;10.70;;;;;;;;;;5029465;28;20414;-68
2023/10/03 09:44:05;;;;;;;31.70;10.38;;;;;;;;;;5010653;28;20271;-69
2023/10/03 09:46:39;;;;;;;23.45;9.43;;;;;;;;;;5030919;28;20025;-69
2023/10/03 09:49:08;;;;;;;28.60;8.98;;;;;;;;;;5031491;28;20118;-66
2023/10/03 09:51:53;;;;;;;23.92;9.18;;;;;;;;;;5030563;28;20028;-69
2023/10/03 09:54:24;;;;;;;25.20;9.63;;;;;;;;;;5019111;28;20469;-71
2023/10/03 09:56:50;;;;;;;25.98;9.02;;;;;;;;;;5023495;28;20034;-70
2023/10/03 09:59:17;;;;;;;22.65;9.30;;;;;;;;;;5022208;28;20032;-69
2023/10/03 10:01:45;;;;;;;24.67;9.43;;;;;;;;;;5019801;28;20390;-68
2023/10/03 10:04:10;;;;;;;27.13;9.43;;;;;;;;;;5021689;28;20283;-68
2023/10/03 10:06:48;;;;;;;26.33;9.18;;;;;;;;;;5027984;28;20159;-69
2023/10/03 10:09:33;;;;;;;29.33;9.73;;;;;;;;;;5029483;28;20009;-68
2023/10/03 10:12:21;;;;;;;35.55;10.25;;;;;;;;;;5026630;28;20040;-68
2023/10/03 10:15:00;;;;;;;32.38;9.55;;;;;;;;;;5018877;28;20028;-68
2023/10/03 10:17:39;;;;;;;33.42;9.98;;;;;;;;;;5022460;28;20055;-71
2023/10/03 10:20:08;;;;;;;26.35;10.35;;;;;;;;;;5025313;28;20033;-69
2023/10/03 10:22:52;;;;;;;27.10;9.18;;;;;;;;;;5022601;28;20022;-68
2023/10/03 10:25:25;;;;;;;25.63;9.07;;;;;;;;;;5021413;28;20029;-67
2023/10/03 10:27:59;;;;;;;30.23;10.77;;;;;;;;;;5029246;28;20030;-68
2023/10/03 10:30:25;;;;;;;26.17;8.85;;;;;;;;;;5026442;28;20021;-66
2023/10/03 10:33:09;;;;;;;30.27;9.57;;;;;;;;;;5022822;28;20093;-68
2023/10/03 10:35:59;;;;;;;24.80;9.63;;;;;;;;;;5022894;28;20469;-69
2023/10/03 10:38:30;;;;;;;25.63;9.45;;;;;;;;;;5017886;28;20579;-68
2023/10/03 10:41:11;;;;;;;29.73;9.30;;;;;;;;;;5025103;28;20025;-68
2023/10/03 10:43:36;;;;;;;28.52;9.00;;;;;;;;;;5021913;28;20041;-71
2023/10/03 10:46:20;;;;;;;27.73;8.68;;;;;;;;;;5023235;28;20030;-68
2023/10/03 10:48:46;;;;;;;22.13;8.32;;;;;;;;;;5024855;28;20026;-70
2023/10/03 10:51:12;;;;;;;21.92;7.90;;;;;;;;;;5022803;28;20100;-68
2023/10/03 10:53:38;;;;;;;23.95;8.77;;;;;;;;;;5027069;28;20493;-69
2023/10/03 10:56:07;;;;;;;21.38;7.82;;;;;;;;;;5027267;28;20112;-69
2023/10/03 10:58:32;;;;;;;23.48;8.57;;;;;;;;;;5039343;23;20163;-70
2023/10/03 11:00:58;;;;;;;22.77;8.25;;;;;;;;;;5026577;28;20025;-69
2023/10/03 11:03:23;;;;;;;18.17;6.95;;;;;;;;;;5026133;28;20097;-69
2023/10/03 11:05:50;;;;;;;30.02;8.05;;;;;;;;;;5026654;28;20109;-68
2023/10/03 11:08:17;;;;;;;18.98;7.55;;;;;;;;;;5021067;28;20036;-68
2023/10/03 11:10:49;;;;;;;22.60;8.00;;;;;;;;;;5022971;28;20017;-69
2023/10/03 11:13:14;;;;;;;21.20;8.07;;;;;;;;;;5027845;28;20495;-69
2023/10/03 11:15:46;;;;;;;28.08;7.63;;;;;;;;;;5026656;28;20131;-68
2023/10/03 11:18:11;;;;;;;23.98;7.65;;;;;;;;;;5026505;28;20033;-68
2023/10/03 11:20:36;;;;;;;25.13;8.65;;;;;;;;;;5027268;28;20535;-64
2023/10/03 11:23:01;;;;;;;26.50;9.07;;;;;;;;;;5026660;28;20096;-69
2023/10/03 11:25:28;;;;;;;21.77;7.22;;;;;;;;;;5027312;28;20243;-68
2023/10/03 11:27:56;;;;;;;25.65;8.27;;;;;;;;;;5022785;28;20076;-68
2023/10/03 11:30:22;;;;;;;19.00;6.97;;;;;;;;;;5020992;28;20037;-68
2023/10/03 11:32:48;;;;;;;20.10;7.53;;;;;;;;;;5022507;28;20061;-67
2023/10/03 11:35:14;;;;;;;24.50;8.25;;;;;;;;;;5019314;28;20014;-67
2023/10/03 11:37:43;;;;;;;17.00;7.03;;;;;;;;;;5028431;28;20046;-70
2023/10/03 11:40:20;;;;;;;17.80;6.88;;;;;;;;;;5026795;28;20036;-69
2023/10/03 11:42:48;;;;;;;22.70;6.97;;;;;;;;;;5021629;28;20041;-69
2023/10/03 11:45:21;;;;;;;17.15;7.32;;;;;;;;;;5023504;28;20029;-67
2023/10/03 11:47:57;;;;;;;18.30;7.43;;;;;;;;;;5019159;28;20536;-71
2023/10/03 11:50:22;;;;;;;14.65;6.10;;;;;;;;;;5021407;28;20033;-67
2023/10/03 11:52:48;;;;;;;26.45;7.43;;;;;;;;;;5026286;28;20017;-67
2023/10/03 11:55:15;;;;;;;21.33;7.53;;;;;;;;;;5020902;28;20412;-66
2023/10/03 11:57:40;;;;;;;21.38;6.72;;;;;;;;;;5020063;28;20105;-65
2023/10/03 12:00:14;;;;;;;20.02;6.78;;;;;;;;;;5021211;28;20388;-68
2023/10/03 12:02:39;;;;;;;18.50;6.45;;;;;;;;;;5021364;28;20045;-68
2023/10/03 12:05:05;;;;;;;16.38;6.78;;;;;;;;;;5022629;28;20045;-69
2023/10/03 12:07:31;;;;;;;27.55;7.35;;;;;;;;;;5026899;28;20419;-68
2023/10/03 12:09:56;;;;;;;30.50;6.65;;;;;;;;;;5030210;28;20013;-69
2023/10/03 12:12:21;;;;;;;36.50;8.65;;;;;;;;;;5025739;28;20036;-66
2023/10/03 12:14:47;;;;;;;26.92;7.95;;;;;;;;;;5029366;28;20029;-69
2023/10/03 12:17:12;;;;;;;25.67;6.38;;;;;;;;;;5024380;28;20028;-69
2023/10/03 12:19:37;;;;;;;26.80;6.20;;;;;;;;;;5027986;28;20112;-70
2023/10/03 12:22:03;;;;;;;24.05;6.95;;;;;;;;;;5022564;28;20248;-68
2023/10/03 12:24:28;;;;;;;19.77;7.53;;;;;;;;;;5026831;28;20022;-69
2023/10/03 12:26:54;;;;;;;20.70;6.33;;;;;;;;;;5018786;28;20026;-64
2023/10/03 12:29:19;;;;;;;26.00;6.85;;;;;;;;;;5025608;28;20259;-68
2023/10/03 12:31:48;;;;;;;23.17;6.63;;;;;;;;;;5010657;28;20025;-68
2023/10/03 12:34:13;;;;;;;18.67;7.15;;;;;;;;;;5024205;28;20321;-66
2023/10/03 12:36:38;;;;;;;20.13;6.43;;;;;;;;;;5030089;28;20538;-69
2023/10/03 12:39:10;;;;;;;23.50;6.20;;;;;;;;;;5025598;28;20353;-65
2023/10/03 12:41:35;;;;;;;17.02;6.07;;;;;;;;;;5026733;28;20286;-69
2023/10/03 12:44:01;;;;;;;23.02;6.75;;;;;;;;;;5021627;28;20501;-68
2023/10/03 12:46:28;;;;;;;18.67;6.15;;;;;;;;;;5030228;28;20397;-69
2023/10/03 12:48:54;;;;;;;30.30;7.37;;;;;;;;;;5030371;28;20458;-69
2023/10/03 12:51:19;;;;;;;16.30;5.80;;;;;;;;;;5024416;28;20273;-69
2023/10/03 12:53:44;;;;;;;15.55;5.90;;;;;;;;;;5027431;28;20086;-69
2023/10/03 12:56:10;;;;;;;19.58;6.80;;;;;;;;;;5023158;28;20014;-69
2023/10/03 12:58:35;;;;;;;25.33;6.75;;;;;;;;;;5026987;28;20033;-68
2023/10/03 13:01:01;;;;;;;21.15;6.00;;;;;;;;;;5027218;28;20040;-67
2023/10/03 13:03:26;;;;;;;18.00;6.22;;;;;;;;;;5026235;28;20083;-68
2023/10/03 13:05:55;;;;;;;19.95;6.68;;;;;;;;;;5027610;28;20083;-68
2023/10/03 13:08:21;;;;;;;22.70;6.45;;;;;;;;;;5023688;28;20025;-66
2023/10/03 13:10:48;;;;;;;22.73;6.95;;;;;;;;;;5024631;28;20013;-68
2023/10/03 13:13:13;;;;;;;18.48;6.03;;;;;;;;;;5028859;28;20010;-68
2023/10/03 13:15:38;;;;;;;14.52;6.13;;;;;;;;;;5010935;28;20029;-68
2023/10/03 13:18:04;;;;;;;17.23;6.45;;;;;;;;;;5028894;28;20025;-66
2023/10/03 13:20:29;;;;;;;16.52;5.80;;;;;;;;;;5026122;28;20019;-68
2023/10/03 13:22:57;;;;;;;17.70;6.60;;;;;;;;;;5023344;28;20045;-69
2023/10/03 13:25:22;;;;;;;19.05;6.07;;;;;;;;;;5025385;28;20434;-69
2023/10/03 13:27:48;;;;;;;15.13;5.70;;;;;;;;;;5027743;28;20028;-69
2023/10/03 13:30:18;;;;;;;18.05;6.45;;;;;;;;;;5023082;28;20101;-68
2023/10/03 13:32:44;;;;;;;16.80;5.95;;;;;;;;;;5025431;28;20449;-67
2023/10/03 13:35:13;;;;;;;15.20;5.55;;;;;;;;;;5019868;28;20018;-67
2023/10/03 13:37:38;;;;;;;20.75;6.00;;;;;;;;;;5030144;28;20046;-69
2023/10/03 13:40:05;;;;;;;17.55;5.95;;;;;;;;;;5026769;28;20068;-66
2023/10/03 13:42:30;;;;;;;19.95;6.43;;;;;;;;;;5028796;28;20500;-69
2023/10/03 13:44:56;;;;;;;11.70;5.13;;;;;;;;;;5028731;28;20029;-68
2023/10/03 13:47:22;;;;;;;17.50;5.28;;;;;;;;;;5024250;28;20038;-65
2023/10/03 13:49:47;;;;;;;13.00;5.07;;;;;;;;;;5022573;28;20052;-68
2023/10/03 13:52:14;;;;;;;22.55;6.55;;;;;;;;;;5028123;28;20088;-68
2023/10/03 13:54:41;;;;;;;22.73;5.50;;;;;;;;;;5025133;28;20022;-67
2023/10/03 13:57:06;;;;;;;15.05;4.78;;;;;;;;;;5019635;28;20121;-69
2023/10/03 13:59:32;;;;;;;12.23;4.63;;;;;;;;;;5023598;28;20112;-66
2023/10/03 14:01:58;;;;;;;18.65;4.95;;;;;;;;;;5025640;28;20340;-69
2023/10/03 14:04:23;;;;;;;14.20;4.72;;;;;;;;;;5022556;28;20104;-69
2023/10/03 14:06:48;;;;;;;11.80;4.40;;;;;;;;;;5027791;28;20040;-67
2023/10/03 14:09:16;;;;;;;8.45;3.60;;;;;;;;;;5021886;28;20025;-69
2023/10/03 14:11:42;;;;;;;9.30;3.58;;;;;;;;;;5023836;28;20488;-68
2023/10/03 14:14:07;;;;;;;18.67;4.28;;;;;;;;;;5019364;28;20565;-70
2023/10/03 14:16:33;;;;;;;16.25;4.22;;;;;;;;;;5025665;28;20029;-69
2023/10/03 14:18:58;;;;;;;10.13;3.97;;;;;;;;;;5026708;28;20017;-69
2023/10/03 14:21:23;;;;;;;18.73;4.60;;;;;;;;;;5025633;28;20075;-68
2023/10/03 14:23:51;;;;;;;10.63;4.07;;;;;;;;;;5025530;28;20026;-69